Portada
METAR-TAF:

METAR-TAF

Aeroports :

Hickory, Carolina del Nord, Estats Units d'Amèrica

latitud: 35-44-32N, longitud: 081-22-56W, altitud: 362 m

Observació

L'informe es va fer fa 27 minuts, a les 14:53 UTC
Vent 3 kt del Nord
Temperatura 6°C
Humitat 61%
Pressió 1023 hPa
Visibilitat: 16.1 km
Cel clar

METAR: KHKY 151453Z 01003KT 10SM CLR 06/M01 A3021 RMK AO2 SLP226 T00611011 51008

Hora: 10:20 (15:20 UTC)

Pronòstic

L'informe es va fer fa 3 hores i 48 minuts, a les 11:32 UTC
Pronòstic vàlid del 15 a les 12 UTC al 16 a les 12 UTC
Vent 4 kt del Nord
Visibilitat: 10 km
Núvols disperses a una alçada de 8000 ft
Cel ennuvolat a una alçada de 25000 ft
A partir de les 15 a les 1400 UTC
Vent 7 kt del Nord-Est
Visibilitat: 10 km
Cel ennuvolat a una alçada de 7000 ft

TAF: KHKY 151132Z 1512/1612 36004KT P6SM SCT080 BKN250 FM151400 04007KT P6SM BKN070

Observacions i pronòstics meteorològics de més de 4000 aeroports (METAR i TAF).

Les estacions disponibles són els punts grocs i vermells al mapa.

Posi el ratolí al punt desitjat per veure el nom de l'estació.

Feu clic per veure les observacions i els pronòstics meteorològics.

Per canviar el mapa: feu clic els botons verds amb una creu de color negre per apropar; al botó verd amb un guió per allunyar la imatge; o en les fletxes verdes per a mapes adjacents.


METAR-TAF: